createdAt,value
2022-08-02T00:01:34.298Z,6.20
2022-08-02T00:06:39.107Z,6.60
2022-08-02T00:11:44.232Z,6.18
2022-08-02T00:16:48.074Z,6.65
2022-08-02T00:21:52.423Z,6.25
2022-08-02T00:26:57.682Z,5.50
2022-08-02T00:37:05.444Z,5.72
2022-08-02T00:42:11.642Z,5.40
2022-08-02T00:47:19.303Z,6.68
2022-08-02T00:52:24.167Z,5.90
2022-08-02T00:57:29.342Z,5.40
2022-08-02T01:02:33.233Z,5.75
2022-08-02T01:07:37.120Z,5.05
2022-08-02T01:12:42.765Z,5.70
2022-08-02T01:17:53.949Z,6.07
2022-08-02T01:23:10.609Z,5.78
2022-08-02T01:28:30.099Z,5.55
2022-08-02T01:33:41.035Z,6.57
2022-08-02T01:38:49.415Z,6.35
2022-08-02T01:43:59.085Z,5.43
2022-08-02T01:49:06.845Z,5.65
2022-08-02T01:54:16.221Z,5.78
2022-08-02T01:59:24.108Z,5.28
2022-08-02T02:04:30.413Z,5.80
2022-08-02T02:09:47.668Z,6.03
2022-08-02T02:14:57.298Z,5.32
2022-08-02T02:20:04.135Z,6.53
2022-08-02T02:25:11.258Z,6.25
2022-08-02T02:30:18.241Z,6.15
2022-08-02T02:35:23.760Z,7.30
2022-08-02T02:40:29.911Z,6.32
2022-08-02T02:45:37.351Z,5.75
2022-08-02T02:50:42.974Z,16.70
2022-08-02T02:56:02.646Z,5.80
2022-08-02T03:01:56.150Z,6.45
2022-08-02T03:06:54.348Z,6.22
2022-08-02T03:12:01.918Z,6.70
2022-08-02T03:17:10.315Z,6.03
2022-08-02T03:22:17.930Z,6.05
2022-08-02T03:27:25.180Z,5.90
2022-08-02T03:32:33.757Z,5.93
2022-08-02T03:37:41.653Z,5.70
2022-08-02T03:42:50.170Z,6.57
2022-08-02T03:48:00.404Z,5.65
2022-08-02T03:53:08.581Z,6.10
2022-08-02T03:58:28.008Z,5.72
2022-08-02T04:03:36.863Z,5.15
2022-08-02T04:08:43.984Z,5.75
2022-08-02T04:13:51.126Z,5.82
2022-08-02T04:19:03.558Z,6.25
2022-08-02T04:24:13.428Z,6.68
2022-08-02T04:29:27.697Z,6.13
2022-08-02T04:34:36.679Z,6.18
2022-08-02T04:39:44.608Z,7.15
2022-08-02T04:44:52.273Z,6.97
2022-08-02T04:50:01.058Z,6.35
2022-08-02T04:55:09.151Z,6.47
2022-08-02T05:00:22.916Z,5.75
2022-08-02T05:05:31.695Z,6.82
2022-08-02T05:10:39.163Z,6.55
2022-08-02T05:15:46.386Z,6.43
2022-08-02T05:20:58.139Z,6.18
2022-08-02T05:26:05.164Z,6.25
2022-08-02T05:31:13.321Z,7.40
2022-08-02T05:36:22.258Z,6.80
2022-08-02T05:41:29.309Z,6.95
2022-08-02T05:46:36.615Z,7.32
2022-08-02T05:51:54.838Z,7.28
2022-08-02T05:57:07.949Z,7.15
2022-08-02T06:02:30.316Z,9.07
2022-08-02T06:07:40.227Z,7.65
2022-08-02T06:12:52.149Z,7.60
2022-08-02T06:18:00.946Z,7.38
2022-08-02T06:23:13.701Z,7.00
2022-08-02T06:28:22.450Z,6.90
2022-08-02T06:33:29.492Z,8.32
2022-08-02T06:38:43.905Z,8.70
2022-08-02T06:44:26.279Z,8.52
2022-08-02T06:49:52.789Z,8.10
2022-08-02T06:55:09.107Z,7.90
2022-08-02T07:00:22.933Z,8.13
2022-08-02T07:05:40.186Z,8.38
2022-08-02T07:11:01.016Z,7.97
2022-08-02T07:16:21.083Z,8.82
2022-08-02T07:21:57.124Z,10.23
2022-08-02T07:27:23.678Z,9.48
2022-08-02T07:32:35.635Z,9.27
2022-08-02T07:37:58.029Z,11.10
2022-08-02T07:43:14.152Z,9.48
2022-08-02T07:48:24.410Z,8.90
2022-08-02T07:53:50.916Z,8.02
2022-08-02T07:59:00.411Z,8.35
2022-08-02T08:04:08.121Z,8.80
2022-08-02T08:09:15.614Z,9.73
2022-08-02T08:14:24.009Z,9.23
2022-08-02T08:19:50.437Z,9.88
2022-08-02T08:24:58.337Z,9.57
2022-08-02T08:30:10.861Z,9.73
2022-08-02T08:35:18.377Z,9.90
2022-08-02T08:40:28.170Z,10.30
2022-08-02T08:45:36.630Z,10.18
2022-08-02T08:50:52.715Z,11.48
2022-08-02T08:56:00.179Z,11.05
2022-08-02T09:01:11.676Z,11.25
2022-08-02T09:06:18.402Z,10.32
2022-08-02T09:11:28.100Z,10.52
2022-08-02T09:16:38.639Z,11.77
2022-08-02T09:21:48.934Z,9.43
2022-08-02T09:26:56.238Z,8.73
2022-08-02T09:32:07.067Z,10.85
2022-08-02T09:37:25.904Z,9.65
2022-08-02T09:42:32.372Z,9.88
2022-08-02T09:47:40.344Z,8.32
2022-08-02T09:52:47.747Z,7.55
2022-08-02T09:57:55.416Z,6.65
2022-08-02T10:03:21.939Z,7.15
2022-08-02T10:08:33.019Z,6.65
2022-08-02T10:13:40.798Z,6.95
2022-08-02T10:18:49.487Z,5.05
2022-08-02T10:24:02.700Z,6.97
2022-08-02T10:29:11.914Z,6.18
2022-08-02T10:34:31.626Z,5.78
2022-08-02T10:39:42.599Z,6.35
2022-08-02T10:44:49.039Z,6.20
2022-08-02T10:49:58.879Z,7.35
2022-08-02T10:55:22.399Z,7.82
2022-08-02T11:00:31.043Z,8.32
2022-08-02T11:05:42.697Z,7.95
2022-08-02T11:10:50.982Z,8.38
2022-08-02T11:16:01.892Z,7.78
2022-08-02T11:21:26.991Z,7.38
2022-08-02T11:26:55.255Z,6.55
2022-08-02T11:32:03.084Z,8.20
2022-08-02T11:37:12.135Z,8.05
2022-08-02T11:42:19.243Z,9.18
2022-08-02T11:47:26.434Z,8.55
2022-08-02T11:52:38.121Z,8.63
2022-08-02T11:58:03.212Z,8.50
2022-08-02T12:03:14.390Z,9.60
2022-08-02T12:08:28.630Z,10.23
2022-08-02T12:13:56.893Z,9.93
2022-08-02T12:19:23.921Z,9.65
2022-08-02T12:24:32.477Z,9.57
2022-08-02T12:29:58.573Z,8.65
2022-08-02T12:35:26.671Z,7.43
2022-08-02T12:40:36.142Z,8.32
2022-08-02T12:45:53.710Z,8.18
2022-08-02T12:51:00.882Z,8.43
2022-08-02T12:56:12.839Z,8.65
2022-08-02T13:01:34.599Z,10.88
2022-08-02T13:07:13.372Z,9.32
2022-08-02T13:12:37.267Z,9.00
2022-08-02T13:17:43.725Z,8.32
2022-08-02T13:22:52.864Z,9.52
2022-08-02T13:27:58.849Z,9.23
2022-08-02T13:33:02.796Z,9.73
2022-08-02T13:38:06.723Z,9.60
2022-08-02T13:43:52.826Z,10.30
2022-08-02T13:48:59.394Z,8.38
2022-08-02T13:54:03.112Z,9.60
2022-08-02T13:59:54.898Z,9.70
2022-08-02T14:04:32.957Z,8.93
2022-08-02T14:09:36.958Z,9.60
2022-08-02T14:14:42.621Z,9.52
2022-08-02T14:19:49.315Z,8.68
2022-08-02T14:24:53.479Z,8.18
2022-08-02T14:29:58.855Z,9.68
2022-08-02T14:35:02.885Z,9.80
2022-08-02T14:40:27.724Z,9.98
2022-08-02T14:45:40.128Z,9.55
2022-08-02T14:50:45.383Z,8.80
2022-08-02T14:55:49.608Z,10.68
2022-08-02T15:00:55.087Z,11.83
2022-08-02T15:05:59.391Z,11.20
2022-08-02T15:11:03.824Z,11.20
2022-08-02T15:16:10.450Z,12.88
2022-08-02T15:21:36.595Z,13.68
2022-08-02T15:26:39.968Z,13.80
2022-08-02T15:31:45.413Z,12.55
2022-08-02T15:36:49.866Z,12.55
2022-08-02T15:41:54.278Z,13.80
2022-08-02T15:47:00.413Z,13.50
2022-08-02T15:52:05.266Z,12.35
2022-08-02T15:57:09.309Z,12.65
2022-08-02T16:02:16.149Z,13.50
2022-08-02T16:07:20.526Z,12.98
2022-08-02T16:12:32.373Z,13.38
2022-08-02T16:17:51.554Z,12.35
2022-08-02T16:22:58.278Z,13.93
2022-08-02T16:28:07.364Z,13.90
2022-08-02T16:33:13.309Z,13.95
2022-08-02T16:43:20.902Z,15.27
2022-08-02T16:48:25.907Z,14.45
2022-08-02T16:53:36.237Z,11.73
2022-08-02T16:58:41.092Z,12.23
2022-08-02T17:03:56.317Z,12.07
2022-08-02T17:09:02.106Z,15.43
2022-08-02T17:20:37.677Z,15.38
2022-08-02T17:25:43.330Z,15.35
2022-08-02T17:30:56.589Z,17.20
2022-08-02T17:36:01.971Z,15.23
2022-08-02T17:41:06.460Z,16.88
2022-08-02T17:46:19.206Z,17.48
2022-08-02T17:52:15.338Z,17.23
2022-08-02T17:56:50.956Z,17.88
2022-08-02T18:07:09.850Z,19.38
2022-08-02T18:12:15.580Z,17.70
2022-08-02T18:17:25.002Z,14.55
2022-08-02T18:22:34.431Z,18.48
2022-08-02T18:27:38.979Z,25.17
2022-08-02T18:33:57.333Z,20.83
2022-08-02T18:38:11.750Z,21.45
2022-08-02T18:43:15.772Z,18.52
2022-08-02T18:48:20.317Z,21.43
2022-08-02T18:58:52.121Z,21.33
2022-08-02T19:03:56.283Z,19.17
2022-08-02T19:09:12.761Z,20.85
2022-08-02T19:14:24.096Z,19.85
2022-08-02T19:19:31.892Z,16.47
2022-08-02T19:24:38.593Z,20.25
2022-08-02T19:29:53.415Z,19.50
2022-08-02T19:35:00.263Z,20.50
2022-08-02T19:40:07.948Z,19.52
2022-08-02T19:45:14.061Z,19.85
2022-08-02T19:50:19.539Z,23.53
2022-08-02T19:55:58.305Z,24.42
2022-08-02T20:01:20.687Z,25.40
2022-08-02T20:06:34.750Z,21.50
2022-08-02T20:11:40.624Z,22.47
2022-08-02T20:16:46.016Z,24.42
2022-08-02T20:21:55.501Z,22.90
2022-08-02T20:27:04.600Z,23.42
2022-08-02T20:32:08.268Z,21.80
2022-08-02T20:38:01.088Z,23.95
2022-08-02T20:42:37.547Z,24.65
2022-08-02T20:47:43.233Z,25.38
2022-08-02T20:52:53.528Z,23.50
2022-08-02T20:58:01.086Z,22.73
2022-08-02T21:03:08.880Z,17.77
2022-08-02T21:08:15.133Z,24.35
2022-08-02T21:13:24.097Z,23.08
2022-08-02T21:18:40.194Z,22.00
2022-08-02T21:23:48.940Z,21.80
2022-08-02T21:29:03.047Z,20.73
2022-08-02T21:34:22.000Z,20.70
2022-08-02T21:39:32.320Z,21.70
2022-08-02T21:44:37.405Z,21.55
2022-08-02T21:50:13.238Z,21.90
2022-08-02T21:55:09.114Z,20.17
2022-08-02T22:00:22.543Z,22.92
2022-08-02T22:05:37.317Z,24.70
2022-08-02T22:10:55.187Z,24.30
2022-08-02T22:16:02.505Z,24.40
2022-08-02T22:21:14.210Z,24.17
2022-08-02T22:26:19.199Z,23.73
2022-08-02T22:31:40.874Z,24.30
2022-08-02T22:36:46.032Z,25.42
2022-08-02T22:42:05.949Z,24.40
2022-08-02T22:47:14.717Z,23.17
2022-08-02T22:52:36.054Z,21.83
2022-08-02T22:57:56.792Z,21.00
2022-08-02T22:58:57.558Z,23.95
2022-08-02T23:03:02.178Z,23.63
2022-08-02T23:08:07.052Z,22.77
2022-08-02T23:13:10.864Z,23.25
2022-08-02T23:18:33.267Z,23.33
2022-08-02T23:23:37.304Z,23.83
2022-08-02T23:28:41.172Z,23.48
2022-08-02T23:34:03.541Z,25.13
2022-08-02T23:39:08.616Z,23.48
2022-08-02T23:44:14.247Z,24.45
2022-08-02T23:49:20.741Z,22.35
2022-08-02T23:54:25.371Z,23.00
2022-08-02T23:59:28.996Z,23.23
